createdAt,value
2017-11-25T00:02:26.271Z,78.90
2017-11-25T00:04:52.488Z,78.90
2017-11-25T00:07:19.064Z,80.10
2017-11-25T00:09:46.663Z,79.60
2017-11-25T00:12:14.205Z,78.50
2017-11-25T00:14:40.973Z,78.50
2017-11-25T00:17:07.617Z,76.90
2017-11-25T00:19:34.432Z,76.10
2017-11-25T00:22:02.175Z,75.90
2017-11-25T00:24:29.285Z,76.40
2017-11-25T00:26:55.501Z,75.50
2017-11-25T00:29:22.095Z,77.20
2017-11-25T00:31:48.971Z,76.40
2017-11-25T00:34:15.761Z,76.00
2017-11-25T00:36:42.735Z,75.70
2017-11-25T00:39:09.734Z,75.70
2017-11-25T00:41:35.945Z,75.70
2017-11-25T00:44:03.653Z,76.10
2017-11-25T00:46:30.040Z,75.90
2017-11-25T00:48:56.987Z,75.40
2017-11-25T00:51:23.633Z,75.10
2017-11-25T00:53:50.904Z,74.90
2017-11-25T00:56:17.840Z,74.90
2017-11-25T00:58:45.569Z,75.80
2017-11-25T01:01:11.799Z,75.50
2017-11-25T01:03:38.689Z,76.80
2017-11-25T01:06:04.915Z,75.70
2017-11-25T01:08:31.758Z,75.80
2017-11-25T01:10:58.968Z,77.20
2017-11-25T01:13:25.220Z,77.20
2017-11-25T01:15:52.109Z,76.80
2017-11-25T01:18:19.223Z,75.70
2017-11-25T01:20:53.907Z,75.20
2017-11-25T01:23:21.319Z,75.20
2017-11-25T01:25:48.615Z,75.00
2017-11-25T01:28:15.836Z,74.90
2017-11-25T01:30:42.607Z,75.60
2017-11-25T01:33:10.373Z,75.40
2017-11-25T01:35:37.540Z,75.20
2017-11-25T01:38:04.999Z,76.20
2017-11-25T01:40:32.737Z,75.60
2017-11-25T01:42:58.955Z,75.60
2017-11-25T01:45:26.100Z,76.00
2017-11-25T01:47:53.648Z,77.10
2017-11-25T01:50:20.824Z,76.40
2017-11-25T01:52:48.807Z,77.10
2017-11-25T01:55:15.597Z,77.20
2017-11-25T01:57:42.102Z,75.60
2017-11-25T02:00:09.294Z,75.90
2017-11-25T02:02:36.278Z,75.10
2017-11-25T02:05:03.518Z,75.10
2017-11-25T02:07:29.748Z,74.90
2017-11-25T02:09:57.010Z,75.10
2017-11-25T02:12:23.750Z,75.80
2017-11-25T02:14:50.292Z,75.20
2017-11-25T02:17:17.028Z,74.80
2017-11-25T02:19:43.794Z,74.70
2017-11-25T02:22:10.660Z,75.40
2017-11-25T02:24:38.525Z,76.10
2017-11-25T02:27:05.328Z,76.40
2017-11-25T02:29:33.377Z,79.10
2017-11-25T02:32:00.879Z,78.40
2017-11-25T02:34:28.372Z,78.40
2017-11-25T02:36:55.354Z,76.50
2017-11-25T02:39:22.580Z,76.50
2017-11-25T02:41:49.846Z,75.60
2017-11-25T02:46:50.744Z,76.40
2017-11-25T02:49:17.672Z,76.40
2017-11-25T02:51:45.240Z,77.30
2017-11-25T02:54:11.728Z,77.40
2017-11-25T02:56:39.296Z,76.30
2017-11-25T02:59:06.867Z,76.20
2017-11-25T03:01:33.756Z,76.20
2017-11-25T03:04:01.813Z,76.00
2017-11-25T03:06:29.441Z,76.50
2017-11-25T03:08:56.934Z,76.40
2017-11-25T03:11:24.151Z,76.60
2017-11-25T03:13:50.883Z,77.40
2017-11-25T03:16:17.687Z,78.00
2017-11-25T03:18:45.735Z,76.70
2017-11-25T03:21:13.124Z,76.80
2017-11-25T03:23:40.716Z,76.60
2017-11-25T03:26:07.732Z,78.80
2017-11-25T03:28:34.728Z,80.00
2017-11-25T03:31:00.974Z,79.90
2017-11-25T03:33:27.190Z,80.50
2017-11-25T03:35:54.028Z,81.00
2017-11-25T03:38:21.114Z,80.50
2017-11-25T03:40:48.407Z,78.00
2017-11-25T03:43:15.698Z,77.90
2017-11-25T03:45:42.694Z,77.20
2017-11-25T03:48:08.921Z,77.40
2017-11-25T03:50:35.699Z,77.00
2017-11-25T03:53:02.465Z,76.80
2017-11-25T03:55:29.860Z,76.70
2017-11-25T03:57:56.726Z,76.70
2017-11-25T04:00:23.673Z,76.70
2017-11-25T04:02:50.488Z,76.30
2017-11-25T04:05:16.727Z,76.50
2017-11-25T04:07:43.520Z,76.10
2017-11-25T04:10:11.061Z,75.90
2017-11-25T04:12:37.624Z,75.80
2017-11-25T04:15:05.177Z,75.80
2017-11-25T04:17:32.721Z,75.80
2017-11-25T04:20:00.534Z,75.80
2017-11-25T04:22:27.271Z,76.50
2017-11-25T04:24:53.951Z,76.30
2017-11-25T04:27:21.904Z,75.90
2017-11-25T04:29:49.174Z,75.90
2017-11-25T04:32:15.399Z,75.90
2017-11-25T04:34:42.144Z,75.60
2017-11-25T04:37:09.941Z,75.20
2017-11-25T04:39:37.971Z,75.70
2017-11-25T04:42:04.201Z,75.50
2017-11-25T04:44:30.925Z,75.30
2017-11-25T04:46:57.665Z,76.10
2017-11-25T04:49:25.157Z,76.10
2017-11-25T04:51:52.657Z,75.80
2017-11-25T04:54:19.358Z,75.80
2017-11-25T04:56:46.390Z,76.50
2017-11-25T04:59:13.226Z,76.50
2017-11-25T05:01:39.992Z,76.50
2017-11-25T05:04:07.934Z,76.30
2017-11-25T05:06:34.433Z,76.30
2017-11-25T05:09:00.659Z,76.00
2017-11-25T05:11:28.012Z,76.70
2017-11-25T05:13:54.751Z,75.90
2017-11-25T05:16:22.528Z,75.80
2017-11-25T05:18:49.025Z,76.10
2017-11-25T05:21:16.335Z,76.30
2017-11-25T05:23:44.339Z,76.10
2017-11-25T05:26:11.911Z,75.90
2017-11-25T05:28:38.974Z,75.30
2017-11-25T05:31:05.199Z,75.20
2017-11-25T05:33:31.964Z,76.20
2017-11-25T05:35:58.708Z,75.70
2017-11-25T05:38:25.999Z,76.00
2017-11-25T05:40:53.570Z,76.50
2017-11-25T05:43:20.852Z,76.00
2017-11-25T05:45:48.429Z,75.90
2017-11-25T05:48:15.108Z,75.90
2017-11-25T05:50:42.096Z,75.50
2017-11-25T05:53:08.330Z,75.40
2017-11-25T05:55:34.511Z,75.40
2017-11-25T05:58:01.494Z,75.90
2017-11-25T06:00:28.916Z,75.80
2017-11-25T06:02:56.970Z,75.80
2017-11-25T06:05:23.743Z,75.80
2017-11-25T06:07:50.523Z,75.70
2017-11-25T06:10:17.294Z,75.60
2017-11-25T06:12:43.854Z,75.80
2017-11-25T06:15:11.378Z,76.30
2017-11-25T06:17:37.653Z,76.30
2017-11-25T06:20:03.879Z,77.10
2017-11-25T06:22:30.650Z,78.40
2017-11-25T06:24:57.397Z,79.30
2017-11-25T06:27:25.236Z,79.00
2017-11-25T06:29:51.734Z,78.90
2017-11-25T06:32:18.916Z,77.20
2017-11-25T06:34:46.198Z,76.50
2017-11-25T06:37:13.011Z,76.50
2017-11-25T06:39:39.250Z,76.20
2017-11-25T06:42:06.139Z,76.20
2017-11-25T06:44:33.344Z,76.30
2017-11-25T06:46:59.773Z,76.20
2017-11-25T06:49:26.618Z,76.70
2017-11-25T06:51:53.483Z,76.30
2017-11-25T06:54:20.213Z,76.10
2017-11-25T06:56:47.295Z,76.10
2017-11-25T06:59:14.234Z,76.50
2017-11-25T07:01:40.762Z,76.20
2017-11-25T07:04:07.072Z,76.00
2017-11-25T07:06:35.561Z,76.80
2017-11-25T07:09:02.066Z,76.70
2017-11-25T07:11:29.122Z,76.70
2017-11-25T07:13:56.361Z,76.70
2017-11-25T07:16:22.812Z,76.30
2017-11-25T07:18:49.696Z,76.90
2017-11-25T07:21:16.514Z,77.60
2017-11-25T07:23:43.788Z,80.10
2017-11-25T07:26:10.820Z,78.70
2017-11-25T07:28:37.165Z,78.70
2017-11-25T07:31:03.397Z,78.20
2017-11-25T07:33:29.660Z,77.60
2017-11-25T07:35:55.950Z,77.60
2017-11-25T07:38:22.230Z,77.60
2017-11-25T07:40:49.150Z,77.70
2017-11-25T07:43:16.274Z,77.80
2017-11-25T07:45:43.339Z,77.70
2017-11-25T07:48:10.951Z,77.50
2017-11-25T07:50:37.681Z,77.50
2017-11-25T07:53:04.460Z,77.30
2017-11-25T07:55:31.700Z,77.30
2017-11-25T07:57:58.005Z,77.30
2017-11-25T08:00:24.725Z,77.20
2017-11-25T08:02:52.428Z,77.80
2017-11-25T08:05:19.167Z,77.80
2017-11-25T08:07:46.268Z,78.50
2017-11-25T08:10:13.352Z,78.20
2017-11-25T08:12:39.661Z,78.30
2017-11-25T08:15:06.181Z,77.90
2017-11-25T08:17:33.240Z,77.20
2017-11-25T08:20:00.124Z,77.10
2017-11-25T08:22:27.513Z,77.20
2017-11-25T08:24:54.551Z,77.60
2017-11-25T08:27:21.514Z,77.70
2017-11-25T08:29:49.042Z,77.70
2017-11-25T08:32:16.233Z,77.70
2017-11-25T08:34:42.448Z,77.30
2017-11-25T08:37:08.971Z,77.10
2017-11-25T08:39:36.881Z,77.30
2017-11-25T08:42:04.028Z,77.30
2017-11-25T08:44:30.516Z,77.80
2017-11-25T08:46:57.749Z,76.80
2017-11-25T08:49:23.971Z,76.50
2017-11-25T08:51:50.692Z,76.30
2017-11-25T08:54:18.484Z,77.10
2017-11-25T08:56:44.724Z,77.20
2017-11-25T08:59:11.708Z,76.70
2017-11-25T09:01:38.025Z,76.60
2017-11-25T09:04:04.291Z,76.70
2017-11-25T09:06:30.539Z,76.70
2017-11-25T09:08:56.772Z,76.40
2017-11-25T09:11:24.009Z,76.50
2017-11-25T09:13:51.799Z,78.40
2017-11-25T09:16:19.539Z,78.80
2017-11-25T09:18:47.113Z,78.70
2017-11-25T09:21:13.533Z,78.60
2017-11-25T09:23:40.422Z,79.00
2017-11-25T09:26:06.642Z,79.20
2017-11-25T09:28:33.458Z,79.70
2017-11-25T09:30:59.697Z,78.50
2017-11-25T09:33:28.035Z,75.60
2017-11-25T09:35:54.753Z,75.60
2017-11-25T09:38:21.124Z,76.40
2017-11-25T09:40:47.337Z,76.00
2017-11-25T09:43:14.124Z,74.80
2017-11-25T09:45:41.692Z,75.90
2017-11-25T09:48:08.434Z,75.90
2017-11-25T09:50:34.646Z,75.80
2017-11-25T09:53:01.856Z,77.40
2017-11-25T09:55:29.473Z,77.40
2017-11-25T09:57:56.255Z,78.00
2017-11-25T10:00:23.361Z,73.60
2017-11-25T10:02:50.756Z,72.30
2017-11-25T10:05:17.795Z,72.40
2017-11-25T10:07:44.068Z,72.30
2017-11-25T10:10:11.391Z,73.00
2017-11-25T10:12:38.436Z,72.90
2017-11-25T10:15:05.173Z,72.70
2017-11-25T10:17:31.530Z,72.80
2017-11-25T10:19:57.946Z,72.70
2017-11-25T10:22:24.360Z,73.90
2017-11-25T10:24:51.943Z,72.80
2017-11-25T10:27:19.286Z,72.80
2017-11-25T10:39:37.025Z,73.20
2017-11-25T10:42:03.296Z,74.10
2017-11-25T10:44:30.180Z,73.70
2017-11-25T10:46:57.207Z,73.60
2017-11-25T10:49:23.936Z,73.40
2017-11-25T10:51:50.704Z,74.20
2017-11-25T10:54:17.496Z,74.30
2017-11-25T10:56:44.224Z,74.20
2017-11-25T10:59:11.229Z,74.10
2017-11-25T11:01:38.422Z,73.80
2017-11-25T11:04:04.689Z,73.80
2017-11-25T11:06:31.596Z,74.70
2017-11-25T11:08:58.334Z,74.50
2017-11-25T11:11:25.489Z,73.60
2017-11-25T11:13:51.730Z,72.70
2017-11-25T11:16:18.975Z,73.10
2017-11-25T11:18:46.451Z,73.00
2017-11-25T11:21:13.896Z,72.60
2017-11-25T11:23:40.911Z,71.70
2017-11-25T11:26:07.225Z,71.70
2017-11-25T11:28:34.802Z,71.00
2017-11-25T11:31:02.827Z,70.60
2017-11-25T11:33:29.548Z,70.60
2017-11-25T11:35:56.310Z,69.50
2017-11-25T11:38:23.417Z,70.20
2017-11-25T11:40:50.237Z,70.30
2017-11-25T11:43:16.993Z,69.80
2017-11-25T11:45:43.565Z,70.30
2017-11-25T11:48:10.830Z,69.20
2017-11-25T11:50:37.808Z,68.60
2017-11-25T11:53:04.554Z,67.80
2017-11-25T11:55:32.322Z,68.10
2017-11-25T11:57:59.063Z,69.00
2017-11-25T12:00:26.488Z,69.80
2017-11-25T12:02:54.146Z,70.80
2017-11-25T12:05:21.845Z,70.40
2017-11-25T12:07:48.126Z,70.40
2017-11-25T12:10:14.461Z,70.20
2017-11-25T12:12:40.712Z,70.60
2017-11-25T12:15:07.124Z,70.30
2017-11-25T12:17:34.745Z,70.20
2017-11-25T12:20:02.016Z,70.60
2017-11-25T12:22:28.861Z,70.60
2017-11-25T12:24:56.259Z,71.30
2017-11-25T12:27:22.499Z,71.40
2017-11-25T12:29:49.307Z,71.50
2017-11-25T12:32:16.950Z,71.80
2017-11-25T12:34:43.298Z,71.70
2017-11-25T12:37:10.495Z,72.20
2017-11-25T12:39:36.715Z,72.20
2017-11-25T12:42:03.448Z,72.80
2017-11-25T12:44:30.196Z,72.90
2017-11-25T12:46:56.930Z,73.40
2017-11-25T12:49:25.150Z,73.90
2017-11-25T12:51:52.368Z,74.40
2017-11-25T12:54:19.618Z,74.80
2017-11-25T12:56:45.816Z,74.90
2017-11-25T12:59:13.844Z,75.60
2017-11-25T13:01:40.633Z,75.40
2017-11-25T13:04:08.858Z,77.40
2017-11-25T13:06:35.061Z,76.70
2017-11-25T13:09:01.836Z,76.60
2017-11-25T13:11:29.376Z,76.90
2017-11-25T13:13:55.614Z,77.80
2017-11-25T13:16:21.826Z,78.10
2017-11-25T13:18:48.629Z,78.20
2017-11-25T13:21:14.843Z,78.60
2017-11-25T13:23:41.828Z,79.10
2017-11-25T13:26:08.278Z,79.00
2017-11-25T13:28:34.732Z,79.20
2017-11-25T13:31:02.838Z,79.60
2017-11-25T13:33:29.606Z,79.60
2017-11-25T13:35:55.821Z,79.70
2017-11-25T13:38:22.246Z,79.70
2017-11-25T13:40:49.443Z,79.70
2017-11-25T13:43:17.078Z,79.80
2017-11-25T13:55:30.280Z,79.80
2017-11-25T13:57:56.498Z,81.30
2017-11-25T14:00:23.524Z,81.10
2017-11-25T14:02:50.669Z,81.10
2017-11-25T14:05:17.927Z,81.20
2017-11-25T14:07:44.292Z,80.90
2017-11-25T14:10:11.987Z,80.90
2017-11-25T14:12:39.776Z,81.00
2017-11-25T14:15:06.765Z,80.90
2017-11-25T14:17:33.776Z,80.90
2017-11-25T14:20:00.095Z,80.90
2017-11-25T14:22:26.944Z,80.90
2017-11-25T14:24:54.666Z,80.70
2017-11-25T14:27:20.941Z,80.70
2017-11-25T14:29:47.162Z,80.80
2017-11-25T14:32:14.411Z,80.80
2017-11-25T14:34:41.714Z,80.60
2017-11-25T14:37:07.945Z,81.50
2017-11-25T14:39:35.440Z,80.60
2017-11-25T14:42:03.409Z,80.60
2017-11-25T14:44:31.398Z,80.60
2017-11-25T14:56:42.991Z,80.60
2017-11-25T14:59:09.240Z,80.80
2017-11-25T15:04:10.542Z,81.40
2017-11-25T15:06:36.735Z,81.70
2017-11-25T15:09:05.486Z,81.30
2017-11-25T15:11:33.662Z,81.20
2017-11-25T15:14:01.276Z,80.70
2017-11-25T15:16:27.953Z,80.70
2017-11-25T15:18:55.080Z,81.20
2017-11-25T15:21:22.728Z,80.40
2017-11-25T15:23:48.964Z,80.40
2017-11-25T15:39:20.534Z,80.30
2017-11-25T15:41:48.074Z,80.40
2017-11-25T15:44:15.117Z,80.80
2017-11-25T15:46:41.406Z,80.80
2017-11-25T15:49:09.309Z,81.00
2017-11-25T15:51:36.103Z,81.00
2017-11-25T15:54:02.316Z,80.80
2017-11-25T15:56:29.212Z,80.90
2017-11-25T15:58:55.984Z,80.80
2017-11-25T16:01:22.698Z,80.50
2017-11-25T16:03:49.730Z,81.20
2017-11-25T16:06:16.457Z,80.60
2017-11-25T16:08:43.924Z,80.30
2017-11-25T16:11:11.080Z,80.30
2017-11-25T16:13:38.385Z,80.30
2017-11-25T16:16:05.187Z,80.40
2017-11-25T16:18:31.967Z,80.40
2017-11-25T16:20:59.217Z,80.40
2017-11-25T16:23:25.441Z,80.20
2017-11-25T16:25:52.393Z,80.70
2017-11-25T16:28:18.721Z,80.90
2017-11-25T16:30:46.001Z,80.40
2017-11-25T16:33:13.624Z,80.40
2017-11-25T16:35:39.871Z,80.60
2017-11-25T16:38:06.103Z,80.40
2017-11-25T16:40:33.744Z,79.90
2017-11-25T16:43:00.511Z,79.90
2017-11-25T16:45:27.655Z,80.00
2017-11-25T16:47:53.883Z,79.80
2017-11-25T16:50:21.137Z,79.80
2017-11-25T16:52:48.922Z,79.50
2017-11-25T16:55:16.022Z,79.30
2017-11-25T16:57:42.252Z,79.50
2017-11-25T17:00:08.477Z,79.50
2017-11-25T17:02:35.375Z,79.60
2017-11-25T17:05:02.638Z,79.70
2017-11-25T17:07:28.908Z,79.90
2017-11-25T17:09:55.275Z,79.70
2017-11-25T17:12:22.642Z,79.80
2017-11-25T17:14:48.860Z,79.80
2017-11-25T17:17:15.137Z,80.10
2017-11-25T17:19:42.068Z,79.70
2017-11-25T17:22:08.292Z,79.60
2017-11-25T17:24:34.501Z,79.60
2017-11-25T17:27:00.729Z,79.50
2017-11-25T17:29:26.940Z,79.00
2017-11-25T17:31:53.572Z,79.00
2017-11-25T17:34:20.758Z,79.00
2017-11-25T17:36:48.387Z,79.10
2017-11-25T17:39:16.981Z,78.90
2017-11-25T17:41:44.997Z,79.30
2017-11-25T17:44:12.588Z,79.30
2017-11-25T17:46:40.834Z,79.30
2017-11-25T17:49:07.402Z,79.30
2017-11-25T17:51:34.421Z,78.90
2017-11-25T17:54:01.207Z,78.90
2017-11-25T17:56:27.974Z,78.90
2017-11-25T17:58:54.717Z,78.80
2017-11-25T18:01:21.414Z,79.00
2017-11-25T18:03:48.199Z,79.20
2017-11-25T18:06:14.484Z,79.10
2017-11-25T18:08:42.016Z,78.50
2017-11-25T18:11:08.284Z,78.50
2017-11-25T18:13:35.596Z,78.80
2017-11-25T18:16:02.384Z,79.00
2017-11-25T18:18:29.628Z,79.30
2017-11-25T18:20:55.901Z,79.10
2017-11-25T18:23:22.214Z,79.00
2017-11-25T18:25:49.315Z,79.20
2017-11-25T18:28:16.449Z,79.50
2017-11-25T18:30:42.677Z,79.50
2017-11-25T18:33:08.912Z,79.30
2017-11-25T18:35:35.790Z,79.10
2017-11-25T18:38:02.489Z,79.00
2017-11-25T18:40:29.511Z,80.10
2017-11-25T18:42:55.799Z,79.30
2017-11-25T18:45:22.153Z,79.10
2017-11-25T18:47:48.395Z,79.20
2017-11-25T18:50:14.645Z,79.30
2017-11-25T18:52:41.540Z,79.30
2017-11-25T18:55:08.211Z,79.10
2017-11-25T18:57:35.320Z,78.50
2017-11-25T19:00:01.601Z,78.50
2017-11-25T19:02:28.307Z,78.60
2017-11-25T19:04:54.539Z,78.70
2017-11-25T19:07:21.120Z,78.90
2017-11-25T19:09:48.293Z,79.00
2017-11-25T19:12:14.606Z,79.00
2017-11-25T19:14:40.988Z,79.30
2017-11-25T19:17:07.219Z,79.20
2017-11-25T19:19:33.960Z,79.10
2017-11-25T19:22:00.439Z,79.10
2017-11-25T19:24:27.683Z,79.20
2017-11-25T19:26:54.699Z,79.10
2017-11-25T19:29:20.928Z,79.10
2017-11-25T19:31:47.665Z,79.00
2017-11-25T19:34:14.368Z,78.90
2017-11-25T19:39:13.852Z,78.60
2017-11-25T19:41:40.087Z,78.50
2017-11-25T19:44:07.098Z,78.20
2017-11-25T19:46:33.311Z,78.40
2017-11-25T19:48:59.992Z,78.60
2017-11-25T19:51:26.970Z,79.10
2017-11-25T19:53:54.221Z,79.10
2017-11-25T19:56:20.584Z,79.00
2017-11-25T19:58:47.666Z,79.30
2017-11-25T20:01:13.991Z,79.30
2017-11-25T20:03:40.282Z,79.20
2017-11-25T20:06:07.129Z,79.60
2017-11-25T20:08:33.920Z,78.10
2017-11-25T20:11:01.411Z,78.70
2017-11-25T20:13:27.655Z,78.60
2017-11-25T20:15:54.000Z,78.80
2017-11-25T20:18:20.278Z,79.40
2017-11-25T20:20:47.338Z,79.10
2017-11-25T20:23:14.197Z,79.00
2017-11-25T20:25:40.502Z,79.20
2017-11-25T20:28:07.455Z,79.10
2017-11-25T20:30:34.653Z,79.00
2017-11-25T20:33:00.991Z,79.20
2017-11-25T20:35:27.210Z,79.20
2017-11-25T20:37:53.438Z,78.90
2017-11-25T20:40:20.191Z,78.60
2017-11-25T20:42:46.414Z,78.50
2017-11-25T20:45:12.665Z,79.40
2017-11-25T20:47:40.768Z,79.10
2017-11-25T20:50:06.994Z,79.10
2017-11-25T20:52:33.552Z,79.20
2017-11-25T20:55:01.434Z,79.00
2017-11-25T20:57:27.848Z,78.90
2017-11-25T20:59:54.448Z,79.10
2017-11-25T21:02:21.681Z,79.20
2017-11-25T21:04:49.667Z,79.20
2017-11-25T21:07:16.628Z,79.20
2017-11-25T21:09:43.771Z,79.20
2017-11-25T21:12:10.000Z,79.20
2017-11-25T21:14:36.884Z,79.00
2017-11-25T21:17:03.111Z,76.50
2017-11-25T21:19:29.457Z,76.60
2017-11-25T21:21:55.664Z,77.00
2017-11-25T21:24:21.935Z,77.40
2017-11-25T21:26:50.668Z,77.70
2017-11-25T21:29:17.703Z,77.70
2017-11-25T21:31:45.099Z,77.70
2017-11-25T21:34:11.891Z,78.00
2017-11-25T21:36:38.936Z,77.90
2017-11-25T21:39:05.140Z,77.80
2017-11-25T21:41:32.113Z,78.10
2017-11-25T21:43:59.533Z,78.10
2017-11-25T21:46:26.277Z,78.40
2017-11-25T21:48:54.193Z,78.40
2017-11-25T21:51:20.984Z,78.40
2017-11-25T21:53:47.955Z,78.90
2017-11-25T21:56:14.191Z,78.80
2017-11-25T21:58:41.138Z,78.80
2017-11-25T22:01:07.903Z,78.70
2017-11-25T22:03:35.193Z,78.70
2017-11-25T22:06:02.740Z,78.60
2017-11-25T22:08:29.954Z,78.60
2017-11-25T22:10:56.599Z,78.90
2017-11-25T22:13:24.386Z,78.40
2017-11-25T22:15:51.181Z,78.30
2017-11-25T22:18:17.478Z,78.50
2017-11-25T22:20:44.566Z,78.60
2017-11-25T22:23:11.308Z,78.60
2017-11-25T22:25:38.539Z,78.90
2017-11-25T22:28:06.335Z,79.10
2017-11-25T22:43:34.042Z,80.00
2017-11-25T22:46:02.030Z,79.50
2017-11-25T22:48:28.800Z,79.40
2017-11-25T22:50:55.298Z,79.50
2017-11-25T22:53:22.527Z,79.60
2017-11-25T22:55:50.650Z,80.20
2017-11-25T22:58:17.439Z,80.00
2017-11-25T23:00:44.438Z,79.80
2017-11-25T23:03:11.178Z,79.80
2017-11-25T23:05:44.297Z,79.50
2017-11-25T23:08:11.459Z,79.50
2017-11-25T23:10:41.814Z,79.40
2017-11-25T23:13:09.519Z,79.60
2017-11-25T23:15:36.235Z,79.50
2017-11-25T23:18:02.856Z,79.50
2017-11-25T23:20:30.359Z,79.40
2017-11-25T23:22:57.158Z,79.40
2017-11-25T23:25:23.749Z,79.40
2017-11-25T23:27:51.443Z,79.40
2017-11-25T23:30:18.806Z,79.20
2017-11-25T23:32:46.542Z,79.20
2017-11-25T23:35:13.829Z,79.50
2017-11-25T23:37:41.051Z,79.20
2017-11-25T23:40:08.208Z,79.20
2017-11-25T23:45:37.984Z,79.20
2017-11-25T23:48:06.106Z,79.40
2017-11-25T23:50:32.870Z,79.40
2017-11-25T23:53:00.348Z,78.90
2017-11-25T23:55:28.513Z,78.60
2017-11-25T23:57:56.152Z,78.60
